Combs, Kentucky
Current Conditions -  °F | °C
As of 12:53 AM on Monday 22 Dec 2014 (Local Time) from KJKL Reporting Station
Overcast Overcast  
Wind Chill: 32°   Ceiling: 4300
Heat Index: 37°   Visibility: 10mi
Dew Point: 26°   Wind: 6mph
Humidity: 65%   Direction: 90°E
Pressure: 30.06"   Gusts: NA
Location:  37.27°N, 83.21°W
Report Text: KJKL 220553Z AUTO 09005KT 10SM OVC043 03/M03 A3006 RMK AO2 SLP187 T00281033 10028 20017 58012
Loading
Personal Weather Stations






























Interactive Weather Map New forecast layout! Learn more

10-Day Weather Forecast

Advertisements
Track Severe Weather on mobile